createdAt,value
2023-02-25T00:00:49.787Z,4.88
2023-02-25T00:03:36.444Z,3.84
2023-02-25T00:06:22.785Z,3.86
2023-02-25T00:09:11.208Z,4.69
2023-02-25T00:11:56.715Z,4.82
2023-02-25T00:14:46.392Z,4.75
2023-02-25T00:17:36.243Z,4.65
2023-02-25T00:20:22.492Z,3.75
2023-02-25T00:23:08.222Z,4.63
2023-02-25T00:26:05.538Z,3.41
2023-02-25T00:28:51.414Z,4.54
2023-02-25T00:31:37.088Z,3.62
2023-02-25T00:34:22.267Z,4.53
2023-02-25T00:37:10.840Z,4.53
2023-02-25T00:39:56.737Z,4.32
2023-02-25T00:42:42.716Z,4.44
2023-02-25T00:45:28.366Z,4.44
2023-02-25T00:48:15.372Z,4.39
2023-02-25T00:51:09.036Z,4.05
2023-02-25T00:53:58.560Z,4.29
2023-02-25T00:56:44.690Z,3.27
2023-02-25T00:59:30.255Z,4.15
2023-02-25T01:02:15.949Z,3.53
2023-02-25T01:05:01.311Z,3.15
2023-02-25T01:07:48.385Z,4.30
2023-02-25T01:10:33.883Z,3.17
2023-02-25T01:13:19.334Z,3.08
2023-02-25T01:16:14.899Z,4.41
2023-02-25T01:19:02.764Z,4.41
2023-02-25T01:21:51.813Z,3.59
2023-02-25T01:24:40.218Z,4.39
2023-02-25T01:27:25.903Z,4.33
2023-02-25T01:30:12.191Z,4.35
2023-02-25T01:32:57.846Z,4.38
2023-02-25T01:35:43.508Z,3.15
2023-02-25T01:38:30.189Z,4.40
2023-02-25T01:41:15.638Z,4.30
2023-02-25T01:44:02.696Z,3.21
2023-02-25T01:46:53.802Z,4.42
2023-02-25T01:49:46.309Z,3.22
2023-02-25T01:52:32.031Z,4.31
2023-02-25T01:55:18.187Z,4.48
2023-02-25T01:58:04.184Z,4.49
2023-02-25T02:00:55.640Z,4.38
2023-02-25T02:03:44.332Z,4.44
2023-02-25T02:06:36.771Z,3.15
2023-02-25T02:09:26.391Z,3.72
2023-02-25T02:12:12.430Z,4.37
2023-02-25T02:14:59.795Z,3.53
2023-02-25T02:17:56.830Z,4.50
2023-02-25T02:21:11.948Z,4.53
2023-02-25T02:24:32.844Z,4.53
2023-02-25T02:27:52.535Z,4.49
2023-02-25T02:30:43.767Z,3.22
2023-02-25T02:33:57.010Z,4.39
2023-02-25T02:37:00.940Z,4.35
2023-02-25T02:40:05.923Z,4.30
2023-02-25T02:42:55.912Z,4.25
2023-02-25T02:45:54.880Z,3.99
2023-02-25T02:48:52.669Z,3.76
2023-02-25T02:51:45.223Z,4.08
2023-02-25T02:54:37.626Z,3.90
2023-02-25T02:57:27.976Z,4.07
2023-02-25T03:00:17.807Z,3.93
2023-02-25T03:03:36.457Z,4.08
2023-02-25T03:06:26.429Z,2.86
2023-02-25T03:09:25.410Z,4.02
2023-02-25T03:12:11.114Z,4.21
2023-02-25T03:14:57.206Z,3.24
2023-02-25T03:17:50.495Z,4.38
2023-02-25T03:20:42.263Z,4.39
2023-02-25T03:23:32.959Z,3.25
2023-02-25T03:26:30.220Z,4.50
2023-02-25T03:29:24.206Z,4.43
2023-02-25T03:32:12.769Z,3.55
2023-02-25T03:35:01.616Z,4.23
2023-02-25T03:37:52.276Z,4.61
2023-02-25T03:40:42.576Z,3.35
2023-02-25T03:43:34.718Z,4.61
2023-02-25T03:46:23.011Z,4.49
2023-02-25T03:49:15.563Z,3.35
2023-02-25T03:52:06.025Z,4.63
2023-02-25T03:54:54.208Z,4.58
2023-02-25T03:57:43.287Z,4.30
2023-02-25T04:00:35.323Z,3.47
2023-02-25T04:03:20.702Z,4.65
2023-02-25T04:06:06.388Z,4.66
2023-02-25T04:08:52.377Z,3.48
2023-02-25T04:11:38.251Z,4.53
2023-02-25T04:14:24.770Z,3.78
2023-02-25T04:17:16.136Z,4.69
2023-02-25T04:20:01.978Z,4.74
2023-02-25T04:22:47.260Z,4.70
2023-02-25T04:25:33.298Z,3.81
2023-02-25T04:28:18.731Z,3.59
2023-02-25T04:31:04.384Z,4.87
2023-02-25T04:33:50.227Z,4.86
2023-02-25T04:36:36.159Z,4.76
2023-02-25T04:39:21.638Z,3.72
2023-02-25T04:42:07.627Z,4.96
2023-02-25T04:44:53.197Z,5.01
2023-02-25T04:47:39.247Z,4.08
2023-02-25T04:50:26.016Z,5.06
2023-02-25T04:53:11.497Z,5.06
2023-02-25T04:55:57.620Z,4.76
2023-02-25T04:58:44.847Z,5.08
2023-02-25T05:01:32.416Z,5.10
2023-02-25T05:04:18.502Z,4.96
2023-02-25T05:07:05.597Z,4.49
2023-02-25T05:09:51.944Z,5.11
2023-02-25T05:12:37.818Z,4.13
2023-02-25T05:15:23.096Z,4.06
2023-02-25T05:18:08.844Z,5.18
2023-02-25T05:20:54.620Z,5.15
2023-02-25T05:23:43.106Z,4.15
2023-02-25T05:26:28.580Z,5.13
2023-02-25T05:29:14.055Z,4.92
2023-02-25T05:32:00.409Z,5.06
2023-02-25T05:34:45.958Z,5.05
2023-02-25T05:37:32.789Z,3.81
2023-02-25T05:40:18.023Z,4.37
2023-02-25T05:43:04.124Z,3.99
2023-02-25T05:45:56.555Z,4.77
2023-02-25T05:48:46.773Z,3.74
2023-02-25T05:51:32.479Z,5.08
2023-02-25T05:54:17.974Z,5.08
2023-02-25T05:57:03.668Z,5.04
2023-02-25T05:59:49.077Z,5.12
2023-02-25T06:02:34.734Z,5.12
2023-02-25T06:05:20.201Z,5.04
2023-02-25T06:08:05.767Z,4.88
2023-02-25T06:10:54.505Z,4.66
2023-02-25T06:13:40.471Z,5.16
2023-02-25T06:16:31.968Z,5.28
2023-02-25T06:19:17.599Z,5.24
2023-02-25T06:22:03.020Z,5.43
2023-02-25T06:24:49.168Z,4.35
2023-02-25T06:27:34.580Z,5.43
2023-02-25T06:30:20.075Z,5.33
2023-02-25T06:33:05.630Z,5.24
2023-02-25T06:35:55.491Z,5.52
2023-02-25T06:38:41.320Z,5.45
2023-02-25T06:41:29.532Z,5.34
2023-02-25T06:44:15.905Z,5.48
2023-02-25T06:47:01.599Z,5.45
2023-02-25T06:49:47.043Z,5.47
2023-02-25T06:52:32.606Z,5.35
2023-02-25T06:55:18.085Z,5.51
2023-02-25T06:58:03.535Z,5.41
2023-02-25T07:00:52.130Z,5.49
2023-02-25T07:03:37.780Z,4.60
2023-02-25T07:06:23.880Z,4.57
2023-02-25T07:09:09.892Z,4.45
2023-02-25T07:11:55.477Z,5.70
2023-02-25T07:14:41.412Z,5.71
2023-02-25T07:17:27.021Z,5.75
2023-02-25T07:20:12.754Z,5.83
2023-02-25T07:22:58.169Z,5.86
2023-02-25T07:25:43.480Z,6.13
2023-02-25T07:28:28.938Z,5.14
2023-02-25T07:31:17.925Z,5.24
2023-02-25T07:34:03.913Z,5.46
2023-02-25T07:36:49.876Z,5.37
2023-02-25T07:39:35.856Z,6.56
2023-02-25T07:42:23.192Z,5.48
2023-02-25T07:45:10.579Z,6.43
2023-02-25T07:47:55.889Z,5.31
2023-02-25T07:50:41.630Z,6.23
2023-02-25T07:53:26.705Z,5.33
2023-02-25T07:56:13.318Z,6.28
2023-02-25T07:58:59.510Z,6.19
2023-02-25T08:01:45.419Z,5.75
2023-02-25T08:04:30.735Z,4.62
2023-02-25T08:07:16.450Z,5.69
2023-02-25T08:10:01.782Z,5.45
2023-02-25T08:12:47.454Z,5.43
2023-02-25T08:15:33.042Z,4.21
2023-02-25T08:18:18.593Z,4.23
2023-02-25T08:21:05.082Z,5.25
2023-02-25T08:23:52.148Z,4.11
2023-02-25T08:26:37.686Z,5.30
2023-02-25T08:29:24.107Z,4.07
2023-02-25T08:32:09.682Z,5.12
2023-02-25T08:34:56.634Z,5.24
2023-02-25T08:37:45.343Z,5.14
2023-02-25T08:40:31.861Z,5.27
2023-02-25T08:43:17.077Z,5.27
2023-02-25T08:46:03.022Z,4.03
2023-02-25T08:48:50.650Z,5.09
2023-02-25T08:51:37.818Z,5.21
2023-02-25T08:54:25.230Z,5.32
2023-02-25T08:57:10.473Z,5.38
2023-02-25T08:59:56.744Z,5.40
2023-02-25T09:02:43.228Z,4.58
2023-02-25T09:05:28.937Z,5.41
2023-02-25T09:08:14.520Z,4.52
2023-02-25T09:10:59.924Z,5.50
2023-02-25T09:13:45.778Z,5.42
2023-02-25T09:16:31.751Z,4.65
2023-02-25T09:19:18.663Z,5.52
2023-02-25T09:22:06.269Z,4.91
2023-02-25T09:24:52.395Z,4.53
2023-02-25T09:27:37.895Z,5.39
2023-02-25T09:30:23.575Z,5.42
2023-02-25T09:33:09.940Z,5.24
2023-02-25T09:35:56.645Z,5.48
2023-02-25T09:38:46.102Z,5.51
2023-02-25T09:41:33.956Z,5.44
2023-02-25T09:44:24.985Z,5.51
2023-02-25T09:47:21.533Z,5.54
2023-02-25T09:50:21.543Z,5.51
2023-02-25T09:53:21.810Z,5.36
2023-02-25T09:56:08.750Z,5.12
2023-02-25T09:58:58.359Z,3.98
2023-02-25T10:01:59.199Z,4.70
2023-02-25T10:05:02.612Z,3.93
2023-02-25T10:08:07.493Z,4.60
2023-02-25T10:11:14.717Z,4.55
2023-02-25T10:14:12.399Z,4.53
2023-02-25T10:17:05.807Z,4.31
2023-02-25T10:20:23.757Z,4.51
2023-02-25T10:23:51.208Z,4.46
2023-02-25T10:26:42.706Z,4.25
2023-02-25T10:29:40.377Z,4.40
2023-02-25T10:32:28.935Z,4.24
2023-02-25T10:35:26.652Z,4.10
2023-02-25T10:38:12.797Z,4.30
2023-02-25T10:40:59.243Z,3.81
2023-02-25T10:43:46.269Z,4.04
2023-02-25T10:46:50.883Z,4.33
2023-02-25T10:49:38.534Z,4.25
2023-02-25T10:52:24.483Z,4.35
2023-02-25T10:55:26.395Z,3.15
2023-02-25T10:58:28.021Z,4.46
2023-02-25T11:01:17.156Z,3.34
2023-02-25T11:04:06.011Z,4.65
2023-02-25T11:06:52.517Z,4.68
2023-02-25T11:09:38.359Z,4.65
2023-02-25T11:12:24.961Z,4.70
2023-02-25T11:15:44.336Z,4.42
2023-02-25T11:18:33.129Z,4.00
2023-02-25T11:21:31.413Z,4.97
2023-02-25T11:24:34.544Z,5.07
2023-02-25T11:27:41.700Z,5.10
2023-02-25T11:30:40.507Z,3.89
2023-02-25T11:33:38.625Z,5.11
2023-02-25T11:36:43.646Z,5.16
2023-02-25T11:39:35.279Z,5.11
2023-02-25T11:42:31.318Z,5.26
2023-02-25T11:45:21.626Z,5.29
2023-02-25T11:48:31.752Z,5.22
2023-02-25T11:51:41.024Z,5.15
2023-02-25T11:54:53.725Z,5.34
2023-02-25T11:57:59.150Z,5.32
2023-02-25T12:00:57.365Z,5.16
2023-02-25T12:04:06.390Z,5.15
2023-02-25T12:06:54.972Z,5.32
2023-02-25T12:10:11.976Z,5.31
2023-02-25T12:13:06.055Z,5.27
2023-02-25T12:16:08.248Z,5.27
2023-02-25T12:19:31.510Z,5.25
2023-02-25T12:22:33.995Z,5.24
2023-02-25T12:25:43.688Z,5.24
2023-02-25T12:28:57.484Z,5.19
2023-02-25T12:31:53.831Z,5.15
2023-02-25T12:34:54.612Z,3.99
2023-02-25T12:38:04.456Z,5.21
2023-02-25T12:41:09.767Z,5.21
2023-02-25T12:44:28.744Z,5.17
2023-02-25T12:47:17.945Z,5.19
2023-02-25T12:50:22.229Z,5.23
2023-02-25T12:53:40.544Z,5.24
2023-02-25T12:57:15.503Z,5.26
2023-02-25T13:00:23.048Z,4.28
2023-02-25T13:03:24.175Z,5.27
2023-02-25T13:06:25.086Z,5.29
2023-02-25T13:09:39.331Z,5.29
2023-02-25T13:12:33.905Z,4.30
2023-02-25T13:15:30.651Z,5.11
2023-02-25T13:19:04.404Z,5.32
2023-02-25T13:22:20.134Z,4.27
2023-02-25T13:25:20.131Z,5.34
2023-02-25T13:28:08.854Z,5.42
2023-02-25T13:31:18.391Z,5.43
2023-02-25T13:34:13.512Z,5.44
2023-02-25T13:37:14.805Z,5.42
2023-02-25T13:40:17.996Z,5.43
2023-02-25T13:43:29.939Z,5.45
2023-02-25T13:46:21.397Z,5.48
2023-02-25T13:49:25.299Z,5.57
2023-02-25T13:52:37.071Z,5.48
2023-02-25T13:55:58.723Z,5.58
2023-02-25T13:59:33.508Z,5.57
2023-02-25T14:02:20.620Z,5.51
2023-02-25T14:05:08.589Z,5.40
2023-02-25T14:08:10.047Z,4.78
2023-02-25T14:11:17.073Z,5.46
2023-02-25T14:14:02.466Z,5.45
2023-02-25T14:17:17.764Z,5.44
2023-02-25T14:20:29.418Z,5.42
2023-02-25T14:23:37.194Z,5.34
2023-02-25T14:26:32.495Z,5.39
2023-02-25T14:29:25.324Z,4.47
2023-02-25T14:32:23.070Z,5.41
2023-02-25T14:35:24.892Z,5.43
2023-02-25T14:38:13.609Z,5.44
2023-02-25T14:41:33.000Z,5.47
2023-02-25T14:44:29.334Z,5.40
2023-02-25T14:47:29.677Z,3.93
2023-02-25T14:50:38.009Z,4.81
2023-02-25T14:53:32.582Z,4.53
2023-02-25T14:56:48.980Z,3.11
2023-02-25T14:59:56.045Z,4.28
2023-02-25T15:03:09.217Z,4.23
2023-02-25T15:06:17.717Z,4.20
2023-02-25T15:09:23.831Z,4.13
2023-02-25T15:12:47.985Z,4.07
2023-02-25T15:16:13.963Z,4.06
2023-02-25T15:19:27.971Z,4.06
2023-02-25T15:22:14.235Z,4.02
2023-02-25T15:25:30.076Z,3.99
2023-02-25T15:28:30.699Z,4.00
2023-02-25T15:31:32.980Z,2.86
2023-02-25T15:34:22.041Z,4.02
2023-02-25T15:37:55.600Z,4.05
2023-02-25T15:40:45.365Z,3.46
2023-02-25T15:43:40.615Z,3.02
2023-02-25T15:46:35.499Z,3.97
2023-02-25T15:49:37.757Z,3.06
2023-02-25T15:53:02.853Z,3.91
2023-02-25T15:56:18.010Z,3.87
2023-02-25T15:59:05.011Z,2.56
2023-02-25T16:01:51.214Z,3.64
2023-02-25T16:04:46.909Z,3.72
2023-02-25T16:07:40.020Z,3.66
2023-02-25T16:10:32.472Z,3.63
2023-02-25T16:13:37.277Z,3.48
2023-02-25T16:16:23.507Z,3.55
2023-02-25T16:19:17.235Z,2.78
2023-02-25T16:22:19.719Z,3.74
2023-02-25T16:25:16.563Z,2.87
2023-02-25T16:28:18.882Z,3.79
2023-02-25T16:31:24.782Z,2.70
2023-02-25T16:34:23.599Z,4.03
2023-02-25T16:37:51.099Z,4.14
2023-02-25T16:40:40.025Z,4.14
2023-02-25T16:43:30.211Z,3.66
2023-02-25T16:46:20.244Z,3.09
2023-02-25T16:49:17.600Z,3.18
2023-02-25T16:52:04.352Z,3.15
2023-02-25T16:54:56.627Z,3.32
2023-02-25T16:57:47.607Z,4.03
2023-02-25T17:00:34.486Z,3.95
2023-02-25T17:03:21.971Z,4.01
2023-02-25T17:06:16.080Z,4.09
2023-02-25T17:09:01.743Z,4.13
2023-02-25T17:11:54.862Z,2.86
2023-02-25T17:14:44.518Z,3.97
2023-02-25T17:17:35.706Z,4.02
2023-02-25T17:20:24.924Z,3.61
2023-02-25T17:23:16.637Z,4.01
2023-02-25T17:26:02.650Z,3.90
2023-02-25T17:28:51.544Z,3.85
2023-02-25T17:31:47.685Z,3.39
2023-02-25T17:34:36.102Z,3.07
2023-02-25T17:37:23.162Z,3.86
2023-02-25T17:40:16.248Z,3.51
2023-02-25T17:43:40.425Z,3.95
2023-02-25T17:46:37.830Z,3.83
2023-02-25T17:49:32.722Z,3.75
2023-02-25T17:52:23.167Z,3.65
2023-02-25T17:55:38.777Z,3.63
2023-02-25T17:58:24.886Z,3.57
2023-02-25T18:01:22.935Z,2.51
2023-02-25T18:04:08.777Z,3.36
2023-02-25T18:06:55.885Z,2.29
2023-02-25T18:09:41.652Z,2.00
2023-02-25T18:12:34.643Z,2.07
2023-02-25T18:15:27.094Z,3.36
2023-02-25T18:18:21.607Z,3.10
2023-02-25T18:21:10.087Z,3.04
2023-02-25T18:23:56.903Z,3.11
2023-02-25T18:27:04.719Z,3.35
2023-02-25T18:29:50.882Z,2.04
2023-02-25T18:32:36.459Z,3.41
2023-02-25T18:35:22.349Z,3.44
2023-02-25T18:38:15.753Z,2.28
2023-02-25T18:41:02.965Z,3.49
2023-02-25T18:43:49.561Z,3.58
2023-02-25T18:46:35.225Z,3.65
2023-02-25T18:49:21.165Z,3.26
2023-02-25T18:52:17.164Z,3.63
2023-02-25T18:55:02.883Z,3.50
2023-02-25T18:57:49.318Z,2.49
2023-02-25T19:00:35.994Z,3.54
2023-02-25T19:03:36.293Z,3.59
2023-02-25T19:06:24.533Z,2.35
2023-02-25T19:09:11.519Z,3.60
2023-02-25T19:11:56.709Z,3.41
2023-02-25T19:14:43.790Z,3.52
2023-02-25T19:17:30.150Z,3.22
2023-02-25T19:20:21.216Z,2.11
2023-02-25T19:23:06.869Z,2.93
2023-02-25T19:25:58.850Z,3.09
2023-02-25T19:28:44.939Z,3.33
2023-02-25T19:31:30.782Z,3.28
2023-02-25T19:34:16.660Z,3.28
2023-02-25T19:37:01.908Z,2.99
2023-02-25T19:39:47.807Z,3.16
2023-02-25T19:42:33.319Z,2.84
2023-02-25T19:45:22.616Z,2.76
2023-02-25T19:48:09.410Z,3.13
2023-02-25T19:50:55.062Z,2.85
2023-02-25T19:53:42.359Z,3.16
2023-02-25T19:56:28.160Z,2.20
2023-02-25T19:59:14.360Z,3.16
2023-02-25T20:02:00.694Z,3.31
2023-02-25T20:04:48.766Z,3.34
2023-02-25T20:07:34.976Z,3.33
2023-02-25T20:10:22.813Z,3.19
2023-02-25T20:13:08.952Z,2.96
2023-02-25T20:16:02.265Z,2.83
2023-02-25T20:18:52.059Z,2.98
2023-02-25T20:21:38.478Z,2.76
2023-02-25T20:24:23.986Z,2.79
2023-02-25T20:27:10.196Z,2.92
2023-02-25T20:29:56.245Z,2.92
2023-02-25T20:32:44.039Z,2.74
2023-02-25T20:35:30.868Z,2.96
2023-02-25T20:38:40.490Z,3.04
2023-02-25T20:41:27.012Z,2.97
2023-02-25T20:44:17.103Z,3.00
2023-02-25T20:47:05.246Z,3.04
2023-02-25T20:49:51.764Z,3.03
2023-02-25T20:52:38.286Z,2.91
2023-02-25T20:55:26.136Z,3.04
2023-02-25T20:58:11.980Z,2.89
2023-02-25T21:00:57.650Z,2.80
2023-02-25T21:03:47.804Z,3.05
2023-02-25T21:06:33.865Z,1.76
2023-02-25T21:09:23.531Z,2.86
2023-02-25T21:12:10.381Z,2.94
2023-02-25T21:14:57.125Z,2.65
2023-02-25T21:17:43.166Z,2.07
2023-02-25T21:20:28.698Z,3.09
2023-02-25T21:23:14.119Z,2.98
2023-02-25T21:26:01.015Z,2.94
2023-02-25T21:28:46.805Z,3.08
2023-02-25T21:31:36.294Z,3.02
2023-02-25T21:34:22.066Z,3.34
2023-02-25T21:37:07.991Z,3.13
2023-02-25T21:39:53.172Z,3.34
2023-02-25T21:42:38.992Z,2.43
2023-02-25T21:45:24.521Z,3.24
2023-02-25T21:48:11.830Z,3.34
2023-02-25T21:50:59.244Z,3.11
2023-02-25T21:53:46.029Z,2.49
2023-02-25T21:56:33.645Z,2.99
2023-02-25T21:59:23.341Z,3.19
2023-02-25T22:02:10.529Z,2.08
2023-02-25T22:04:56.878Z,3.18
2023-02-25T22:07:52.680Z,3.11
2023-02-25T22:10:40.266Z,3.13
2023-02-25T22:13:33.193Z,1.85
2023-02-25T22:16:21.330Z,3.08
2023-02-25T22:19:10.831Z,3.04
2023-02-25T22:21:56.565Z,1.89
2023-02-25T22:24:42.314Z,1.83
2023-02-25T22:27:28.355Z,2.95
2023-02-25T22:30:13.822Z,3.01
2023-02-25T22:32:59.561Z,1.90
2023-02-25T22:35:54.654Z,3.04
2023-02-25T22:38:41.950Z,2.48
2023-02-25T22:41:32.402Z,1.77
2023-02-25T22:44:18.251Z,2.94
2023-02-25T22:47:04.231Z,2.88
2023-02-25T22:49:50.064Z,2.81
2023-02-25T22:52:37.673Z,2.60
2023-02-25T22:55:24.546Z,2.84
2023-02-25T22:58:10.153Z,2.58
2023-02-25T23:00:56.264Z,2.16
2023-02-25T23:03:45.815Z,1.61
2023-02-25T23:06:42.780Z,2.53
2023-02-25T23:09:29.031Z,2.31
2023-02-25T23:12:16.866Z,2.65
2023-02-25T23:15:02.358Z,2.66
2023-02-25T23:17:47.772Z,2.29
2023-02-25T23:20:41.881Z,2.59
2023-02-25T23:23:38.260Z,1.17
2023-02-25T23:26:33.689Z,2.36
2023-02-25T23:29:19.533Z,1.34
2023-02-25T23:32:05.036Z,1.35
2023-02-25T23:34:51.282Z,2.28
2023-02-25T23:37:38.506Z,0.94
2023-02-25T23:40:24.135Z,1.83
2023-02-25T23:43:13.840Z,0.99
2023-02-25T23:46:06.685Z,1.85
2023-02-25T23:48:56.996Z,2.09
2023-02-25T23:51:47.297Z,2.01
2023-02-25T23:54:32.976Z,1.87
2023-02-25T23:57:18.390Z,2.03
